Time;durP1;ratioP1;P1;durP2;ratioP2;P2;SDS_P1;SDS_P2;PMS_P1;PMS_P2;Temp;Humidity;BMP_temperature;BMP_pressure;BME280_temperature;BME280_humidity;BME280_pressure;Samples;Min_cycle;Max_cycle;Signal;HPM_P1;HPM_P2
2022/05/13 00:01:04;;;;;;;6.17;2.60;;;;;;;;;;4961166;28;20961;-41
2022/05/13 00:03:31;;;;;;;5.80;2.13;;;;;;;;;;4956981;28;20545;-42
2022/05/13 00:05:57;;;;;;;5.43;2.80;;;;;;;;;;4957802;28;20210;-42
2022/05/13 00:08:23;;;;;;;6.07;2.70;;;;;;;;;;4957588;28;21106;-42
2022/05/13 00:10:49;;;;;;;5.77;2.57;;;;;;;;;;4959196;28;20186;-41
2022/05/13 00:13:15;;;;;;;6.83;3.20;;;;;;;;;;4957911;28;20225;-42
2022/05/13 00:15:42;;;;;;;6.90;3.40;;;;;;;;;;4956276;28;20690;-42
2022/05/13 00:18:09;;;;;;;6.43;3.23;;;;;;;;;;4959204;28;20454;-42
2022/05/13 00:20:35;;;;;;;5.93;3.17;;;;;;;;;;4953042;28;20726;-42
2022/05/13 00:23:01;;;;;;;6.60;3.07;;;;;;;;;;4956911;28;20186;-42
2022/05/13 00:25:30;;;;;;;7.53;3.57;;;;;;;;;;4960502;28;20190;-42
2022/05/13 00:27:56;;;;;;;6.83;4.20;;;;;;;;;;4956769;28;20908;-42
2022/05/13 00:30:23;;;;;;;8.23;4.20;;;;;;;;;;4957875;28;20634;-41
2022/05/13 00:32:49;;;;;;;9.07;4.20;;;;;;;;;;4962492;28;20548;-42
2022/05/13 00:35:15;;;;;;;8.40;3.37;;;;;;;;;;4956845;28;20186;-42
2022/05/13 00:37:42;;;;;;;9.47;3.67;;;;;;;;;;4957712;28;20186;-42
2022/05/13 00:40:09;;;;;;;9.77;4.20;;;;;;;;;;4959411;28;20265;-42
2022/05/13 00:42:35;;;;;;;8.23;3.63;;;;;;;;;;4958718;28;20197;-42
2022/05/13 00:45:01;;;;;;;8.20;3.27;;;;;;;;;;4955173;28;20888;-42
2022/05/13 00:47:27;;;;;;;6.57;3.30;;;;;;;;;;4961748;28;20202;-42
2022/05/13 00:49:57;;;;;;;7.73;3.17;;;;;;;;;;4955149;28;20229;-42
2022/05/13 00:52:24;;;;;;;6.50;3.30;;;;;;;;;;4959867;28;20276;-42
2022/05/13 00:54:50;;;;;;;8.40;3.87;;;;;;;;;;4963793;28;20610;-42
2022/05/13 00:57:17;;;;;;;6.10;3.00;;;;;;;;;;4961750;28;20477;-42
2022/05/13 00:59:44;;;;;;;8.57;3.40;;;;;;;;;;4954802;28;20698;-42
2022/05/13 01:02:11;;;;;;;8.10;3.57;;;;;;;;;;4960549;28;20726;-42
2022/05/13 01:04:38;;;;;;;7.67;3.30;;;;;;;;;;4960067;28;20177;-42
2022/05/13 01:07:06;;;;;;;7.60;3.53;;;;;;;;;;4962405;28;20186;-43
2022/05/13 01:09:34;;;;;;;5.30;3.53;;;;;;;;;;4964484;28;20470;-42
2022/05/13 01:12:03;;;;;;;8.90;3.47;;;;;;;;;;4958066;28;20505;-42
2022/05/13 01:14:32;;;;;;;8.40;3.53;;;;;;;;;;4959030;28;20221;-42
2022/05/13 01:20:04;;;;;;;7.10;3.47;;;;;;;;;;4963914;28;20244;-42
2022/05/13 01:22:30;;;;;;;4.73;3.50;;;;;;;;;;4962248;28;20831;-42
2022/05/13 01:24:57;;;;;;;7.03;3.37;;;;;;;;;;4960191;28;20170;-42
2022/05/13 01:27:23;;;;;;;9.83;3.47;;;;;;;;;;4957278;28;20209;-42
2022/05/13 01:29:51;;;;;;;7.97;3.10;;;;;;;;;;4959832;28;20174;-43
2022/05/13 01:32:18;;;;;;;5.47;3.20;;;;;;;;;;4960625;28;20182;-41
2022/05/13 01:34:44;;;;;;;9.50;3.53;;;;;;;;;;4960923;28;20510;-42
2022/05/13 01:37:10;;;;;;;7.13;3.50;;;;;;;;;;4958642;28;20780;-42
2022/05/13 01:39:36;;;;;;;8.03;3.60;;;;;;;;;;4957126;28;20194;-42
2022/05/13 01:42:02;;;;;;;8.30;3.93;;;;;;;;;;4962197;28;20174;-42
2022/05/13 01:44:28;;;;;;;15.53;4.10;;;;;;;;;;4961116;28;20178;-42
2022/05/13 01:46:54;;;;;;;8.63;3.70;;;;;;;;;;4955992;28;20178;-41
2022/05/13 01:49:20;;;;;;;8.90;4.43;;;;;;;;;;4958578;28;20205;-40
2022/05/13 01:51:46;;;;;;;7.50;4.47;;;;;;;;;;4959621;28;20182;-42
2022/05/13 01:54:12;;;;;;;6.67;4.30;;;;;;;;;;4961623;28;20631;-44
2022/05/13 01:56:38;;;;;;;9.40;4.23;;;;;;;;;;4961220;28;20429;-43
2022/05/13 01:59:04;;;;;;;7.70;4.10;;;;;;;;;;4960505;28;20872;-43
2022/05/13 02:01:30;;;;;;;8.37;3.67;;;;;;;;;;4958202;28;20454;-42
2022/05/13 02:03:56;;;;;;;10.37;4.20;;;;;;;;;;4959455;28;20682;-43
2022/05/13 02:06:24;;;;;;;7.13;3.77;;;;;;;;;;4961635;28;20349;-44
2022/05/13 02:08:51;;;;;;;10.80;3.50;;;;;;;;;;4964310;28;20229;-43
2022/05/13 02:11:18;;;;;;;8.20;3.63;;;;;;;;;;4958116;28;20669;-43
2022/05/13 02:13:45;;;;;;;11.40;3.47;;;;;;;;;;4962011;28;20242;-44
2022/05/13 02:16:12;;;;;;;11.40;3.40;;;;;;;;;;4961648;28;20884;-43
2022/05/13 02:18:39;;;;;;;7.97;3.33;;;;;;;;;;4960547;28;20330;-42
2022/05/13 02:21:06;;;;;;;7.80;3.63;;;;;;;;;;4956453;28;20194;-44
2022/05/13 02:23:32;;;;;;;10.70;3.57;;;;;;;;;;4960094;28;20935;-44
2022/05/13 02:25:59;;;;;;;6.67;3.37;;;;;;;;;;4959115;28;20724;-43
2022/05/13 02:28:25;;;;;;;9.60;3.80;;;;;;;;;;4960552;28;20212;-44
2022/05/13 02:30:52;;;;;;;7.63;3.73;;;;;;;;;;4959885;28;20182;-44
2022/05/13 02:33:18;;;;;;;11.20;4.00;;;;;;;;;;4960864;28;20178;-44
2022/05/13 02:35:44;;;;;;;5.67;3.50;;;;;;;;;;4962188;28;20713;-44
2022/05/13 02:38:12;;;;;;;10.93;4.40;;;;;;;;;;4961274;28;21054;-44
2022/05/13 02:43:23;;;;;;;9.33;4.13;;;;;;;;;;4961531;28;20201;-43
2022/05/13 02:45:49;;;;;;;7.33;3.77;;;;;;;;;;4959425;28;20182;-44
2022/05/13 02:48:15;;;;;;;5.53;3.50;;;;;;;;;;4961953;28;20201;-44
2022/05/13 02:50:41;;;;;;;5.83;3.30;;;;;;;;;;4958528;28;20175;-43
2022/05/13 02:53:08;;;;;;;8.73;4.00;;;;;;;;;;4955770;28;20181;-43
2022/05/13 02:55:34;;;;;;;6.57;3.93;;;;;;;;;;4957628;28;20188;-43
2022/05/13 02:58:00;;;;;;;8.77;3.40;;;;;;;;;;4961156;28;20350;-43
2022/05/13 03:00:26;;;;;;;10.83;3.90;;;;;;;;;;4961100;28;20268;-44
2022/05/13 03:02:52;;;;;;;7.50;3.40;;;;;;;;;;4955868;28;20174;-43
2022/05/13 03:05:19;;;;;;;6.30;3.50;;;;;;;;;;4959051;28;20690;-43
2022/05/13 03:07:45;;;;;;;8.47;4.00;;;;;;;;;;4957973;28;20445;-44
2022/05/13 03:10:11;;;;;;;7.23;3.90;;;;;;;;;;4951985;28;20346;-43
2022/05/13 03:12:39;;;;;;;7.70;3.40;;;;;;;;;;4932362;28;20185;-44
2022/05/13 03:15:05;;;;;;;8.23;3.50;;;;;;;;;;4956063;28;20530;-44
2022/05/13 03:17:31;;;;;;;9.63;3.50;;;;;;;;;;4959985;28;20370;-44
2022/05/13 03:19:57;;;;;;;5.93;3.23;;;;;;;;;;4958762;28;20182;-44
2022/05/13 03:22:23;;;;;;;9.20;3.40;;;;;;;;;;4956453;28;20483;-44
2022/05/13 03:24:50;;;;;;;8.27;3.10;;;;;;;;;;4960446;28;20179;-43
2022/05/13 03:27:16;;;;;;;8.00;3.23;;;;;;;;;;4962696;28;20190;-43
2022/05/13 03:29:42;;;;;;;8.00;3.53;;;;;;;;;;4960836;28;20252;-44
2022/05/13 03:32:08;;;;;;;12.60;3.50;;;;;;;;;;4958981;28;20174;-42
2022/05/13 03:34:37;;;;;;;8.93;3.40;;;;;;;;;;4962246;28;20178;-43
2022/05/13 03:37:04;;;;;;;5.70;3.00;;;;;;;;;;4963355;28;20706;-44
2022/05/13 03:39:30;;;;;;;9.97;3.27;;;;;;;;;;4960865;28;20182;-43
2022/05/13 03:41:56;;;;;;;6.93;3.37;;;;;;;;;;4961474;28;20175;-43
2022/05/13 03:44:22;;;;;;;6.07;3.27;;;;;;;;;;4962785;28;20561;-43
2022/05/13 03:46:48;;;;;;;7.47;2.97;;;;;;;;;;4961774;28;20182;-43
2022/05/13 03:49:14;;;;;;;7.17;2.67;;;;;;;;;;4961561;28;20712;-44
2022/05/13 03:51:40;;;;;;;7.07;3.10;;;;;;;;;;4963659;28;20213;-43
2022/05/13 03:54:07;;;;;;;5.70;3.00;;;;;;;;;;4964281;28;20178;-44
2022/05/13 03:56:33;;;;;;;5.70;3.10;;;;;;;;;;4960333;28;20185;-43
2022/05/13 03:58:59;;;;;;;6.30;2.50;;;;;;;;;;4961982;28;20194;-44
2022/05/13 04:01:25;;;;;;;3.97;2.70;;;;;;;;;;4960233;28;20182;-43
2022/05/13 04:03:51;;;;;;;6.33;2.67;;;;;;;;;;4959752;28;20303;-44
2022/05/13 04:09:04;;;;;;;5.20;2.63;;;;;;;;;;4966514;28;20400;-44
2022/05/13 04:11:32;;;;;;;7.17;2.90;;;;;;;;;;4963596;28;20765;-44
2022/05/13 04:16:43;;;;;;;7.57;2.97;;;;;;;;;;4957905;28;20248;-44
2022/05/13 04:19:10;;;;;;;7.77;2.77;;;;;;;;;;4959278;28;20306;-43
2022/05/13 04:21:38;;;;;;;8.27;3.00;;;;;;;;;;4941360;28;20186;-44
2022/05/13 04:24:05;;;;;;;11.80;3.80;;;;;;;;;;4961176;28;20268;-44
2022/05/13 04:26:32;;;;;;;12.70;3.60;;;;;;;;;;4944375;28;20221;-43
2022/05/13 04:28:58;;;;;;;7.13;2.97;;;;;;;;;;4965637;28;20994;-44
2022/05/13 04:31:26;;;;;;;10.67;3.30;;;;;;;;;;4959669;28;20232;-44
2022/05/13 04:33:53;;;;;;;4.60;2.37;;;;;;;;;;4959977;28;20670;-44
2022/05/13 04:36:21;;;;;;;11.93;3.13;;;;;;;;;;4964201;28;20316;-44
2022/05/13 04:38:47;;;;;;;5.90;2.70;;;;;;;;;;4968893;28;20186;-44
2022/05/13 04:43:59;;;;;;;6.87;2.83;;;;;;;;;;4960800;28;20205;-43
2022/05/13 04:46:25;;;;;;;8.87;2.80;;;;;;;;;;4961602;28;21159;-44
2022/05/13 04:48:53;;;;;;;4.90;2.53;;;;;;;;;;4966089;28;20222;-44
2022/05/13 04:51:19;;;;;;;9.30;2.70;;;;;;;;;;4962789;28;20617;-45
2022/05/13 04:53:46;;;;;;;7.57;2.63;;;;;;;;;;4963484;28;21049;-44
2022/05/13 04:56:12;;;;;;;7.80;2.60;;;;;;;;;;4967323;28;20189;-44
2022/05/13 04:58:39;;;;;;;7.77;2.80;;;;;;;;;;4964811;28;20824;-44
2022/05/13 05:01:06;;;;;;;7.97;2.30;;;;;;;;;;4961119;28;20981;-43
2022/05/13 05:03:35;;;;;;;7.27;2.73;;;;;;;;;;4964394;28;20181;-43
2022/05/13 05:06:01;;;;;;;6.93;2.97;;;;;;;;;;4968537;28;20299;-44
2022/05/13 05:08:28;;;;;;;7.87;3.03;;;;;;;;;;4963220;28;20186;-44
2022/05/13 05:10:54;;;;;;;7.23;2.60;;;;;;;;;;4960872;28;20182;-43
2022/05/13 05:13:25;;;;;;;8.03;2.30;;;;;;;;;;4963015;28;20170;-44
2022/05/13 05:15:51;;;;;;;10.93;3.20;;;;;;;;;;4964830;28;20189;-43
2022/05/13 05:18:18;;;;;;;9.17;3.07;;;;;;;;;;4963659;28;20182;-43
2022/05/13 05:20:45;;;;;;;7.57;2.80;;;;;;;;;;4962288;28;20183;-43
2022/05/13 05:23:15;;;;;;;10.23;3.43;;;;;;;;;;4967275;28;20399;-43
2022/05/13 05:25:42;;;;;;;7.80;2.90;;;;;;;;;;4965904;28;20193;-43
2022/05/13 05:28:08;;;;;;;9.27;3.20;;;;;;;;;;4961761;28;20201;-43
2022/05/13 05:30:35;;;;;;;8.87;3.17;;;;;;;;;;4959578;28;20178;-43
2022/05/13 05:33:01;;;;;;;12.20;3.20;;;;;;;;;;4962953;28;20257;-43
2022/05/13 05:35:28;;;;;;;8.47;3.50;;;;;;;;;;4963506;28;20191;-43
2022/05/13 05:37:54;;;;;;;8.20;2.80;;;;;;;;;;4957861;28;20201;-42
2022/05/13 05:40:20;;;;;;;12.33;3.50;;;;;;;;;;4958560;28;20737;-42
2022/05/13 05:42:48;;;;;;;10.27;3.40;;;;;;;;;;4960316;28;20982;-42
2022/05/13 05:45:15;;;;;;;10.93;3.57;;;;;;;;;;4964694;28;20201;-42
2022/05/13 05:47:41;;;;;;;14.03;3.60;;;;;;;;;;4957750;28;20205;-42
2022/05/13 05:50:09;;;;;;;11.37;3.47;;;;;;;;;;4958914;28;20179;-42
2022/05/13 05:52:35;;;;;;;17.57;4.23;;;;;;;;;;4962808;28;20178;-42
2022/05/13 05:57:58;;;;;;;23.60;4.47;;;;;;;;;;4957012;28;20635;-42
2022/05/13 06:00:24;;;;;;;13.73;4.00;;;;;;;;;;4957994;28;20277;-42
2022/05/13 06:02:50;;;;;;;13.33;4.20;;;;;;;;;;4963450;28;20220;-42
2022/05/13 06:05:16;;;;;;;11.80;3.40;;;;;;;;;;4963416;28;20190;-42
2022/05/13 06:07:45;;;;;;;20.00;4.33;;;;;;;;;;4959130;28;20698;-42
2022/05/13 06:10:12;;;;;;;16.13;3.97;;;;;;;;;;4961764;28;20174;-43
2022/05/13 06:12:38;;;;;;;15.87;4.30;;;;;;;;;;4965577;28;20289;-42
2022/05/13 06:15:04;;;;;;;14.73;4.90;;;;;;;;;;4959418;28;20182;-42
2022/05/13 06:17:30;;;;;;;16.93;4.53;;;;;;;;;;4960636;28;20519;-42
2022/05/13 06:19:56;;;;;;;16.63;5.13;;;;;;;;;;4961403;28;20182;-42
2022/05/13 06:22:22;;;;;;;21.43;5.47;;;;;;;;;;4965223;28;20182;-42
2022/05/13 06:24:48;;;;;;;17.77;5.37;;;;;;;;;;4962729;28;20292;-42
2022/05/13 06:27:14;;;;;;;22.57;6.37;;;;;;;;;;4959396;28;20568;-42
2022/05/13 06:29:41;;;;;;;17.20;5.73;;;;;;;;;;4963535;28;20185;-42
2022/05/13 06:32:07;;;;;;;16.90;5.47;;;;;;;;;;4965950;28;20187;-42
2022/05/13 06:34:33;;;;;;;16.17;7.20;;;;;;;;;;4963516;28;20588;-43
2022/05/13 06:36:59;;;;;;;14.23;7.33;;;;;;;;;;4957162;28;20177;-44
2022/05/13 06:39:25;;;;;;;14.77;6.57;;;;;;;;;;4959841;28;20181;-43
2022/05/13 06:41:51;;;;;;;12.70;7.20;;;;;;;;;;4962977;28;21118;-42
2022/05/13 06:44:18;;;;;;;18.87;7.67;;;;;;;;;;4961855;28;20704;-42
2022/05/13 06:46:44;;;;;;;12.47;6.67;;;;;;;;;;4957362;28;20225;-41
2022/05/13 06:49:12;;;;;;;18.73;7.63;;;;;;;;;;4958038;28;20235;-43
2022/05/13 06:51:40;;;;;;;17.03;7.63;;;;;;;;;;4963760;28;20209;-42
2022/05/13 06:54:07;;;;;;;15.47;7.70;;;;;;;;;;4961604;28;20820;-42
2022/05/13 06:56:36;;;;;;;15.80;7.37;;;;;;;;;;4958255;28;20994;-43
2022/05/13 06:59:02;;;;;;;15.90;8.03;;;;;;;;;;4960383;28;20260;-43
2022/05/13 07:01:28;;;;;;;17.70;8.50;;;;;;;;;;4960075;28;20186;-42
2022/05/13 07:03:54;;;;;;;12.63;6.87;;;;;;;;;;4954317;28;20190;-43
2022/05/13 07:06:21;;;;;;;18.17;8.77;;;;;;;;;;4958059;28;20221;-43
2022/05/13 07:08:48;;;;;;;18.73;8.03;;;;;;;;;;4961921;28;20210;-43
2022/05/13 07:11:14;;;;;;;12.53;7.77;;;;;;;;;;4962414;28;20264;-43
2022/05/13 07:13:40;;;;;;;13.30;7.93;;;;;;;;;;4960629;28;20201;-43
2022/05/13 07:16:06;;;;;;;17.93;8.00;;;;;;;;;;4962966;28;20181;-43
2022/05/13 07:18:33;;;;;;;20.93;9.13;;;;;;;;;;4963944;28;20182;-43
2022/05/13 07:20:59;;;;;;;16.80;8.40;;;;;;;;;;4958164;28;20174;-43
2022/05/13 07:23:25;;;;;;;17.63;8.33;;;;;;;;;;4963733;28;20186;-42
2022/05/13 07:25:52;;;;;;;17.77;7.73;;;;;;;;;;4956754;28;20762;-43
2022/05/13 07:28:18;;;;;;;18.00;7.60;;;;;;;;;;4951409;28;20327;-43
2022/05/13 07:30:46;;;;;;;17.13;7.47;;;;;;;;;;4958097;28;21608;-42
2022/05/13 07:33:13;;;;;;;12.20;7.00;;;;;;;;;;4965643;28;20206;-43
2022/05/13 07:35:39;;;;;;;15.17;7.10;;;;;;;;;;4959900;28;20224;-43
2022/05/13 07:38:06;;;;;;;11.87;5.97;;;;;;;;;;4954672;28;20181;-43
2022/05/13 07:43:17;;;;;;;12.10;6.93;;;;;;;;;;4952851;28;20264;-43
2022/05/13 07:45:43;;;;;;;11.37;6.50;;;;;;;;;;4959775;28;20190;-43
2022/05/13 07:48:09;;;;;;;14.57;6.10;;;;;;;;;;4958806;28;20482;-42
2022/05/13 07:50:36;;;;;;;11.27;5.73;;;;;;;;;;4959469;28;20312;-42
2022/05/13 07:53:02;;;;;;;9.17;5.40;;;;;;;;;;4955172;28;20194;-42
2022/05/13 07:55:28;;;;;;;11.53;5.90;;;;;;;;;;4954714;28;20182;-43
2022/05/13 07:57:54;;;;;;;12.93;5.00;;;;;;;;;;4955592;28;20660;-43
2022/05/13 08:00:25;;;;;;;14.90;5.60;;;;;;;;;;4961234;28;20487;-43
2022/05/13 08:02:52;;;;;;;10.97;4.70;;;;;;;;;;4949497;28;20182;-43
2022/05/13 08:05:18;;;;;;;7.33;4.13;;;;;;;;;;4955809;28;20197;-43
2022/05/13 08:07:44;;;;;;;9.23;4.30;;;;;;;;;;4957631;28;20288;-42
2022/05/13 08:10:11;;;;;;;8.87;4.10;;;;;;;;;;4957178;28;20213;-43
2022/05/13 08:12:37;;;;;;;9.50;4.27;;;;;;;;;;4955556;28;20194;-43
2022/05/13 08:15:03;;;;;;;14.57;5.10;;;;;;;;;;4960204;28;21170;-43
2022/05/13 08:17:33;;;;;;;10.80;4.23;;;;;;;;;;4960928;28;20214;-43
2022/05/13 08:20:00;;;;;;;13.73;5.90;;;;;;;;;;4964812;28;20197;-43
2022/05/13 08:22:26;;;;;;;10.30;4.80;;;;;;;;;;4960162;28;20804;-43
2022/05/13 08:24:52;;;;;;;12.73;5.83;;;;;;;;;;4957218;28;20186;-43
2022/05/13 08:27:18;;;;;;;9.30;4.50;;;;;;;;;;4963618;28;20806;-43
2022/05/13 08:29:44;;;;;;;6.70;3.73;;;;;;;;;;4958471;28;20190;-43
2022/05/13 08:32:10;;;;;;;7.63;3.67;;;;;;;;;;4960489;28;20193;-43
2022/05/13 08:34:36;;;;;;;8.40;3.40;;;;;;;;;;4962592;28;20247;-43
2022/05/13 08:37:02;;;;;;;9.00;4.07;;;;;;;;;;4961616;28;20190;-43
2022/05/13 08:39:28;;;;;;;8.67;4.20;;;;;;;;;;4956096;28;20289;-43
2022/05/13 08:42:10;;;;;;;13.87;4.73;;;;;;;;;;4955946;28;20627;-42
2022/05/13 08:44:37;;;;;;;7.20;3.97;;;;;;;;;;4962458;28;20720;-43
2022/05/13 08:47:22;;;;;;;10.30;4.63;;;;;;;;;;4960763;28;20727;-44
2022/05/13 08:49:48;;;;;;;8.80;4.77;;;;;;;;;;4952669;28;20563;-44
2022/05/13 08:55:12;;;;;;;6.20;3.70;;;;;;;;;;4958125;28;20285;-43
2022/05/13 08:57:40;;;;;;;9.97;4.80;;;;;;;;;;4957810;28;20357;-44
2022/05/13 09:00:11;;;;;;;7.53;3.90;;;;;;;;;;4957561;28;20175;-43
2022/05/13 09:02:39;;;;;;;7.90;3.63;;;;;;;;;;4953189;28;20257;-44
2022/05/13 09:05:08;;;;;;;13.37;4.70;;;;;;;;;;4955873;28;20189;-44
2022/05/13 09:07:34;;;;;;;7.93;3.97;;;;;;;;;;4953353;28;20183;-44
2022/05/13 09:10:02;;;;;;;8.77;4.47;;;;;;;;;;4949607;28;20181;-44
2022/05/13 09:12:31;;;;;;;9.87;4.57;;;;;;;;;;4956232;28;20289;-44
2022/05/13 09:15:00;;;;;;;14.13;4.80;;;;;;;;;;4952938;28;20324;-44
2022/05/13 09:17:26;;;;;;;8.90;4.53;;;;;;;;;;4954267;28;20951;-44
2022/05/13 09:19:56;;;;;;;9.40;4.17;;;;;;;;;;4961713;28;20280;-44
2022/05/13 09:22:22;;;;;;;10.13;4.23;;;;;;;;;;4961563;28;20166;-43
2022/05/13 09:24:48;;;;;;;9.63;3.90;;;;;;;;;;4960399;28;20166;-44
2022/05/13 09:27:14;;;;;;;11.27;3.93;;;;;;;;;;4938426;28;20254;-44
2022/05/13 09:29:44;;;;;;;11.73;4.10;;;;;;;;;;4965278;28;21421;-44
2022/05/13 09:32:15;;;;;;;7.37;3.73;;;;;;;;;;4962992;28;20180;-44
2022/05/13 09:34:47;;;;;;;10.47;4.00;;;;;;;;;;4959121;28;20178;-43
2022/05/13 09:37:22;;;;;;;8.47;3.60;;;;;;;;;;4961205;28;20165;-43
2022/05/13 09:39:50;;;;;;;10.23;4.30;;;;;;;;;;4964667;28;20181;-43
2022/05/13 09:42:19;;;;;;;10.07;4.37;;;;;;;;;;4962952;28;20192;-43
2022/05/13 09:44:46;;;;;;;9.87;4.30;;;;;;;;;;4961607;28;21088;-43
2022/05/13 09:47:24;;;;;;;9.00;4.37;;;;;;;;;;4964492;28;20212;-43
2022/05/13 09:49:50;;;;;;;9.53;3.73;;;;;;;;;;4960777;28;20221;-44
2022/05/13 09:52:18;;;;;;;8.13;4.07;;;;;;;;;;4959896;28;20620;-44
2022/05/13 09:54:47;;;;;;;10.63;3.80;;;;;;;;;;4946788;28;20956;-43
2022/05/13 09:57:28;;;;;;;9.23;4.23;;;;;;;;;;4960242;28;20186;-43
2022/05/13 09:59:55;;;;;;;9.47;4.47;;;;;;;;;;4955448;28;20289;-43
2022/05/13 10:02:21;;;;;;;13.27;4.47;;;;;;;;;;4958387;28;20655;-43
2022/05/13 10:04:52;;;;;;;10.03;4.17;;;;;;;;;;4961740;28;20179;-43
2022/05/13 10:07:18;;;;;;;14.43;4.83;;;;;;;;;;4958727;28;20768;-43
2022/05/13 10:15:26;;;;;;;7.03;3.80;;;;;;;;;;4957454;28;20217;-43
2022/05/13 10:17:55;;;;;;;9.67;4.00;;;;;;;;;;4963986;28;20218;-42
2022/05/13 10:20:25;;;;;;;7.90;3.50;;;;;;;;;;4961328;28;20193;-43
2022/05/13 10:23:13;;;;;;;8.97;3.93;;;;;;;;;;4938265;28;20179;-42
2022/05/13 10:25:58;;;;;;;9.77;3.80;;;;;;;;;;4961445;28;20532;-43
2022/05/13 10:28:29;;;;;;;9.83;3.90;;;;;;;;;;4957450;28;20247;-42
2022/05/13 10:30:59;;;;;;;6.40;3.50;;;;;;;;;;4964087;28;20651;-43
2022/05/13 10:33:25;;;;;;;5.97;3.20;;;;;;;;;;4959664;28;20702;-43
2022/05/13 10:36:00;;;;;;;8.10;3.13;;;;;;;;;;4958808;28;20201;-43
2022/05/13 10:38:45;;;;;;;8.37;3.27;;;;;;;;;;4963115;28;20184;-41
2022/05/13 10:41:17;;;;;;;9.57;3.10;;;;;;;;;;4959558;28;20186;-42
2022/05/13 10:43:55;;;;;;;8.27;3.10;;;;;;;;;;4958751;28;20618;-42
2022/05/13 10:46:31;;;;;;;8.70;3.20;;;;;;;;;;4939759;28;20178;-42
2022/05/13 10:48:58;;;;;;;7.30;3.30;;;;;;;;;;4960762;28;20218;-42
2022/05/13 10:51:24;;;;;;;8.90;3.57;;;;;;;;;;4954042;28;20500;-41
2022/05/13 10:53:54;;;;;;;8.30;3.23;;;;;;;;;;4957502;28;20891;-42
2022/05/13 10:56:20;;;;;;;9.07;3.30;;;;;;;;;;4961821;28;20258;-42
2022/05/13 10:58:46;;;;;;;8.60;3.20;;;;;;;;;;4958130;28;20176;-43
2022/05/13 11:01:15;;;;;;;5.30;2.87;;;;;;;;;;4960268;28;20365;-43
2022/05/13 11:03:48;;;;;;;9.20;3.40;;;;;;;;;;4955603;28;20608;-43
2022/05/13 11:06:33;;;;;;;5.63;2.97;;;;;;;;;;4963877;28;21027;-43
2022/05/13 11:08:59;;;;;;;6.73;3.30;;;;;;;;;;4963344;28;20205;-43
2022/05/13 11:11:28;;;;;;;9.30;3.47;;;;;;;;;;4956125;28;20749;-43
2022/05/13 11:13:54;;;;;;;8.43;2.70;;;;;;;;;;4960616;28;20232;-43
2022/05/13 11:16:20;;;;;;;6.80;2.90;;;;;;;;;;4964967;28;20524;-43
2022/05/13 11:18:54;;;;;;;6.33;2.73;;;;;;;;;;4959985;28;20650;-43
2022/05/13 11:21:29;;;;;;;10.03;3.17;;;;;;;;;;4955684;28;20182;-42
2022/05/13 11:27:02;;;;;;;6.40;2.97;;;;;;;;;;4960298;28;20232;-43
2022/05/13 11:29:35;;;;;;;7.00;2.60;;;;;;;;;;4959314;28;20702;-43
2022/05/13 11:32:11;;;;;;;7.40;3.20;;;;;;;;;;4962053;28;20474;-41
2022/05/13 11:35:04;;;;;;;6.10;3.20;;;;;;;;;;4961480;28;20590;-41
2022/05/13 11:37:33;;;;;;;8.73;3.37;;;;;;;;;;4958116;28;20651;-43
2022/05/13 11:40:17;;;;;;;11.13;3.13;;;;;;;;;;4959006;28;20260;-42
2022/05/13 11:45:32;;;;;;;4.37;2.60;;;;;;;;;;4960757;28;20196;-42
2022/05/13 11:48:01;;;;;;;7.17;3.00;;;;;;;;;;4958321;28;20705;-42
2022/05/13 11:50:28;;;;;;;10.30;3.37;;;;;;;;;;4957888;28;20556;-42
2022/05/13 11:52:55;;;;;;;10.47;3.03;;;;;;;;;;4957949;28;20261;-43
2022/05/13 11:55:45;;;;;;;6.57;2.87;;;;;;;;;;4964363;28;20170;-42
2022/05/13 11:58:30;;;;;;;6.10;2.77;;;;;;;;;;4959022;28;20173;-42
2022/05/13 12:00:56;;;;;;;11.87;3.30;;;;;;;;;;4956660;28;20193;-43
2022/05/13 12:03:22;;;;;;;6.27;2.40;;;;;;;;;;4961017;28;20429;-42
2022/05/13 12:05:49;;;;;;;6.13;2.67;;;;;;;;;;4962241;28;20670;-43
2022/05/13 12:08:33;;;;;;;8.43;2.73;;;;;;;;;;4959811;28;20541;-43
2022/05/13 12:11:00;;;;;;;8.10;2.70;;;;;;;;;;4960018;28;20752;-43
2022/05/13 12:13:26;;;;;;;8.63;3.20;;;;;;;;;;4959802;28;20639;-43
2022/05/13 12:16:01;;;;;;;5.97;3.00;;;;;;;;;;4959155;28;20217;-41
2022/05/13 12:18:48;;;;;;;8.97;2.73;;;;;;;;;;4956601;28;20260;-43
2022/05/13 12:21:34;;;;;;;7.33;3.10;;;;;;;;;;4962332;28;20183;-43
2022/05/13 12:24:13;;;;;;;8.33;3.00;;;;;;;;;;4959504;28;20708;-42
2022/05/13 12:26:52;;;;;;;9.43;2.93;;;;;;;;;;4938739;28;20284;-43
2022/05/13 12:29:20;;;;;;;7.20;2.80;;;;;;;;;;4958843;28;20876;-42
2022/05/13 12:31:55;;;;;;;10.63;2.90;;;;;;;;;;4962623;28;20174;-43
2022/05/13 12:39:52;;;;;;;6.20;2.70;;;;;;;;;;4954611;28;20185;-43
2022/05/13 12:42:37;;;;;;;6.73;2.93;;;;;;;;;;4957831;28;20189;-43
2022/05/13 12:45:04;;;;;;;6.97;2.50;;;;;;;;;;4960819;28;20182;-43
2022/05/13 12:47:51;;;;;;;6.47;2.60;;;;;;;;;;4958716;28;20185;-43
2022/05/13 12:50:38;;;;;;;8.00;2.60;;;;;;;;;;4965047;28;20189;-43
2022/05/13 12:53:24;;;;;;;9.73;2.97;;;;;;;;;;4962600;28;20162;-42
2022/05/13 12:55:50;;;;;;;9.17;2.97;;;;;;;;;;4959051;28;20533;-42
2022/05/13 12:58:19;;;;;;;6.53;2.80;;;;;;;;;;4963497;28;20567;-43
2022/05/13 13:00:46;;;;;;;6.10;2.70;;;;;;;;;;4962989;28;20186;-43
2022/05/13 13:03:14;;;;;;;8.50;3.10;;;;;;;;;;4958025;28;20581;-43
2022/05/13 13:05:42;;;;;;;7.07;3.10;;;;;;;;;;4965638;28;20266;-43
2022/05/13 13:08:14;;;;;;;5.37;2.70;;;;;;;;;;4961046;28;20371;-42
2022/05/13 13:10:57;;;;;;;7.33;2.63;;;;;;;;;;4961168;28;20191;-43
2022/05/13 13:13:31;;;;;;;6.87;3.00;;;;;;;;;;4964220;28;20169;-43
2022/05/13 13:16:03;;;;;;;6.77;2.90;;;;;;;;;;4966236;28;20166;-43
2022/05/13 13:18:30;;;;;;;6.90;2.80;;;;;;;;;;4958635;28;20174;-43
2022/05/13 13:21:01;;;;;;;7.60;3.10;;;;;;;;;;4960772;28;20174;-43
2022/05/13 13:23:33;;;;;;;6.87;3.07;;;;;;;;;;4963925;28;20929;-43
2022/05/13 13:26:01;;;;;;;8.47;3.10;;;;;;;;;;4963609;28;21037;-43
2022/05/13 13:28:32;;;;;;;7.97;2.87;;;;;;;;;;4937786;28;20373;-43
2022/05/13 13:31:00;;;;;;;9.13;2.87;;;;;;;;;;4961676;28;20517;-43
2022/05/13 13:33:37;;;;;;;8.97;2.80;;;;;;;;;;4963366;28;20171;-42
2022/05/13 13:36:11;;;;;;;7.73;2.63;;;;;;;;;;4963784;28;20474;-43
2022/05/13 13:38:38;;;;;;;8.97;2.90;;;;;;;;;;4957249;28;20692;-43
2022/05/13 13:41:05;;;;;;;5.43;2.77;;;;;;;;;;4960721;28;20174;-43
2022/05/13 13:43:34;;;;;;;5.20;2.50;;;;;;;;;;4963153;28;20194;-43
2022/05/13 13:46:06;;;;;;;5.83;2.77;;;;;;;;;;4962195;28;20961;-43
2022/05/13 13:48:37;;;;;;;4.87;2.40;;;;;;;;;;4964755;28;20213;-43
2022/05/13 13:51:04;;;;;;;5.93;2.63;;;;;;;;;;4961783;28;20184;-43
2022/05/13 13:53:34;;;;;;;7.60;2.67;;;;;;;;;;4960389;28;20570;-43
2022/05/13 13:56:12;;;;;;;8.37;2.40;;;;;;;;;;4961998;28;20170;-43
2022/05/13 13:58:47;;;;;;;6.93;2.40;;;;;;;;;;4966855;28;20181;-43
2022/05/13 14:01:18;;;;;;;7.63;2.83;;;;;;;;;;4965465;28;20204;-42
2022/05/13 14:03:44;;;;;;;6.70;2.53;;;;;;;;;;4962393;28;20175;-43
2022/05/13 14:06:16;;;;;;;6.90;2.70;;;;;;;;;;4960226;28;20181;-43
2022/05/13 14:08:44;;;;;;;7.90;2.30;;;;;;;;;;4965826;28;20214;-43
2022/05/13 14:11:13;;;;;;;5.93;2.27;;;;;;;;;;4961813;28;20251;-43
2022/05/13 14:13:43;;;;;;;5.97;2.47;;;;;;;;;;4961744;28;20209;-43
2022/05/13 14:16:17;;;;;;;6.87;2.67;;;;;;;;;;4959950;28;20186;-42
2022/05/13 14:18:44;;;;;;;7.20;2.73;;;;;;;;;;4960287;28;20269;-43
2022/05/13 14:21:17;;;;;;;8.30;2.67;;;;;;;;;;4959204;28;20176;-43
2022/05/13 14:23:43;;;;;;;8.47;2.70;;;;;;;;;;4961894;28;21133;-43
2022/05/13 14:26:11;;;;;;;7.60;2.60;;;;;;;;;;4963510;28;20178;-43
2022/05/13 14:28:49;;;;;;;5.43;2.70;;;;;;;;;;4963673;28;20195;-43
2022/05/13 14:31:23;;;;;;;11.77;2.93;;;;;;;;;;4960893;28;20180;-42
2022/05/13 14:33:53;;;;;;;6.13;2.80;;;;;;;;;;4962928;28;20192;-43
2022/05/13 14:36:22;;;;;;;5.57;2.70;;;;;;;;;;4963660;28;20217;-43
2022/05/13 14:41:51;;;;;;;4.70;2.40;;;;;;;;;;4961907;28;20195;-43
2022/05/13 14:44:22;;;;;;;6.13;2.50;;;;;;;;;;4963967;28;20179;-43
2022/05/13 14:47:02;;;;;;;7.97;2.67;;;;;;;;;;4961474;28;21215;-43
2022/05/13 14:49:37;;;;;;;11.13;3.03;;;;;;;;;;4960355;28;20195;-41
2022/05/13 14:52:04;;;;;;;8.00;2.77;;;;;;;;;;4960094;28;20180;-43
2022/05/13 14:54:31;;;;;;;6.97;2.60;;;;;;;;;;4961947;28;20194;-42
2022/05/13 14:57:02;;;;;;;4.00;2.37;;;;;;;;;;4958535;28;20252;-43
2022/05/13 14:59:56;;;;;;;6.20;2.70;;;;;;;;;;4963311;28;20186;-43
2022/05/13 15:02:45;;;;;;;5.33;2.60;;;;;;;;;;4956334;28;20871;-42
2022/05/13 15:05:26;;;;;;;8.17;2.63;;;;;;;;;;4959028;28;20187;-43
2022/05/13 15:07:53;;;;;;;7.43;2.83;;;;;;;;;;4962656;28;20186;-42
2022/05/13 15:10:24;;;;;;;7.47;2.30;;;;;;;;;;4963634;28;20173;-43
2022/05/13 15:12:51;;;;;;;7.70;2.63;;;;;;;;;;4960577;28;20238;-42
2022/05/13 15:15:17;;;;;;;5.53;2.30;;;;;;;;;;4960870;28;20285;-43
2022/05/13 15:17:50;;;;;;;4.50;2.33;;;;;;;;;;4961432;28;20175;-41
2022/05/13 15:20:20;;;;;;;5.13;2.73;;;;;;;;;;4961455;28;21108;-42
2022/05/13 15:22:47;;;;;;;6.03;2.60;;;;;;;;;;4961825;28;20218;-42
2022/05/13 15:25:13;;;;;;;5.47;2.93;;;;;;;;;;4960392;28;20201;-41
2022/05/13 15:27:40;;;;;;;7.00;2.50;;;;;;;;;;4965350;28;20167;-42
2022/05/13 15:30:07;;;;;;;6.57;2.67;;;;;;;;;;4962150;28;21011;-43